createdAt,value
2017-03-23T00:00:49.362Z,61.27
2017-03-23T00:01:59.298Z,61.18
2017-03-23T00:03:09.554Z,61.46
2017-03-23T00:04:19.806Z,61.08
2017-03-23T00:05:30.102Z,61.36
2017-03-23T00:06:40.364Z,61.27
2017-03-23T00:07:50.301Z,61.27
2017-03-23T00:08:59.921Z,61.27
2017-03-23T00:10:09.854Z,61.08
2017-03-23T00:11:19.790Z,61.08
2017-03-23T00:12:30.037Z,61.46
2017-03-23T00:13:39.668Z,61.93
2017-03-23T00:14:49.922Z,61.52
2017-03-23T00:16:00.170Z,62.75
2017-03-23T00:17:10.104Z,62.28
2017-03-23T00:18:20.350Z,62.47
2017-03-23T00:19:30.295Z,62.37
2017-03-23T00:20:40.237Z,61.61
2017-03-23T00:21:50.175Z,61.99
2017-03-23T00:23:00.425Z,64.07
2017-03-23T00:24:10.362Z,65.59
2017-03-23T00:25:20.607Z,66.44
2017-03-23T00:26:30.230Z,67
2017-03-23T00:27:40.481Z,67.47
2017-03-23T00:28:50.422Z,68.52
2017-03-23T00:30:00.354Z,69.09
2017-03-23T00:31:09.980Z,68.99
2017-03-23T00:32:20.227Z,69.37
2017-03-23T00:33:30.171Z,69.37
2017-03-23T00:34:40.421Z,69.37
2017-03-23T00:35:50.354Z,69.93
2017-03-23T00:37:00.608Z,68.9
2017-03-23T00:38:10.851Z,67.76
2017-03-23T00:39:21.096Z,67.85
2017-03-23T00:40:31.347Z,67.76
2017-03-23T00:41:41.290Z,67.38
2017-03-23T00:42:51.225Z,67.66
2017-03-23T00:44:01.479Z,66.25
2017-03-23T00:45:11.734Z,66.44
2017-03-23T00:46:21.988Z,66.25
2017-03-23T00:47:31.930Z,66.25
2017-03-23T00:48:42.179Z,65.68
2017-03-23T00:49:52.115Z,64.36
2017-03-23T00:51:02.405Z,64.26
2017-03-23T00:52:12.344Z,64.36
2017-03-23T00:53:22.282Z,66.63
2017-03-23T00:54:32.531Z,65.78
2017-03-23T00:55:42.781Z,65.3
2017-03-23T00:56:53.027Z,64.83
2017-03-23T00:58:02.650Z,64.17
2017-03-23T00:59:12.905Z,63.79
2017-03-23T01:00:22.837Z,63.7
2017-03-23T01:01:32.461Z,63.51
2017-03-23T01:02:42.707Z,63.79
2017-03-23T01:03:52.951Z,62.94
2017-03-23T01:05:02.885Z,62.94
2017-03-23T01:06:12.822Z,63.23
2017-03-23T01:07:22.755Z,63.32
2017-03-23T01:08:33.026Z,65.59
2017-03-23T01:09:42.649Z,67.19
2017-03-23T01:10:51.958Z,67.57
2017-03-23T01:12:02.208Z,66.25
2017-03-23T01:13:11.834Z,65.87
2017-03-23T01:14:22.082Z,65.49
2017-03-23T01:15:32.343Z,66.06
2017-03-23T01:16:42.277Z,64.83
2017-03-23T01:17:51.900Z,65.02
2017-03-23T01:19:02.150Z,65.97
2017-03-23T01:20:12.405Z,66.35
2017-03-23T01:21:22.342Z,65.59
2017-03-23T01:22:32.595Z,65.3
2017-03-23T01:23:42.530Z,65.49
2017-03-23T01:24:52.148Z,65.11
2017-03-23T01:26:02.403Z,65.78
2017-03-23T01:27:12.663Z,65.78
2017-03-23T01:28:22.912Z,66.25
2017-03-23T01:29:33.161Z,67.1
2017-03-23T01:30:43.094Z,66.63
2017-03-23T01:31:52.718Z,66.44
2017-03-23T01:33:02.655Z,67.19
2017-03-23T01:34:12.278Z,66.63
2017-03-23T01:35:22.531Z,66.06
2017-03-23T01:36:32.779Z,65.21
2017-03-23T01:37:43.027Z,65.68
2017-03-23T01:38:53.275Z,66.72
2017-03-23T01:40:03.523Z,66.35
2017-03-23T01:41:13.776Z,66.35
2017-03-23T01:42:24.030Z,65.97
2017-03-23T01:43:34.280Z,66.44
2017-03-23T01:44:44.211Z,67
2017-03-23T01:45:54.466Z,66.44
2017-03-23T01:47:04.406Z,66.06
2017-03-23T01:48:14.653Z,66.35
2017-03-23T01:49:24.908Z,67
2017-03-23T01:50:35.160Z,67
2017-03-23T01:51:45.412Z,67.47
2017-03-23T01:52:55.665Z,66.82
2017-03-23T01:54:05.919Z,65.97
2017-03-23T01:55:15.850Z,66.44
2017-03-23T01:56:25.793Z,65.68
2017-03-23T01:57:35.725Z,65.02
2017-03-23T01:58:45.039Z,65.4
2017-03-23T01:59:55.296Z,65.97
2017-03-23T02:01:05.238Z,66.16
2017-03-23T02:02:15.487Z,65.78
2017-03-23T02:03:25.735Z,65.3
2017-03-23T02:04:35.679Z,64.73
2017-03-23T02:05:45.301Z,65.21
2017-03-23T02:06:55.553Z,66.35
2017-03-23T02:08:05.808Z,66.72
2017-03-23T02:09:16.061Z,66.35
2017-03-23T02:10:25.992Z,64.83
2017-03-23T02:11:35.930Z,64.73
2017-03-23T02:12:46.172Z,65.11
2017-03-23T02:13:56.104Z,65.21
2017-03-23T02:15:06.354Z,64.07
2017-03-23T02:16:16.606Z,64.26
2017-03-23T02:17:26.548Z,65.49
2017-03-23T02:18:36.481Z,66.35
2017-03-23T02:19:46.725Z,67
2017-03-23T02:20:56.345Z,67.66
2017-03-23T02:22:06.600Z,67.47
2017-03-23T02:23:16.847Z,66.16
2017-03-23T02:24:27.099Z,65.02
2017-03-23T02:25:37.068Z,64.92
2017-03-23T02:26:47.317Z,65.02
2017-03-23T02:27:56.934Z,64.92
2017-03-23T02:29:06.866Z,66.25
2017-03-23T02:30:17.109Z,67
2017-03-23T02:31:27.049Z,66.72
2017-03-23T02:32:36.989Z,66.44
2017-03-23T02:33:47.246Z,65.49
2017-03-23T02:34:57.493Z,67
2017-03-23T02:36:07.792Z,65.97
2017-03-23T02:37:18.049Z,65.21
2017-03-23T02:38:27.671Z,64.92
2017-03-23T02:39:37.917Z,65.02
2017-03-23T02:40:47.854Z,65.11
2017-03-23T02:41:57.792Z,65.21
2017-03-23T02:43:07.728Z,65.97
2017-03-23T02:44:17.982Z,66.53
2017-03-23T02:45:28.236Z,65.87
2017-03-23T02:46:38.484Z,66.72
2017-03-23T02:47:48.422Z,67.47
2017-03-23T02:48:58.669Z,66.82
2017-03-23T02:50:08.609Z,66.35
2017-03-23T02:51:18.867Z,66.53
2017-03-23T02:52:28.803Z,67.1
2017-03-23T02:53:39.054Z,66.72
2017-03-23T02:54:48.992Z,66.91
2017-03-23T02:55:58.928Z,67.07
2017-03-23T02:57:09.170Z,66.97
2017-03-23T02:58:19.419Z,67.44
2017-03-23T02:59:29.671Z,67.54
2017-03-23T03:00:39.607Z,67.82
2017-03-23T03:01:49.544Z,67.72
2017-03-23T03:02:59.166Z,68.39
2017-03-23T03:04:09.102Z,69.05
2017-03-23T03:05:19.405Z,69.05
2017-03-23T03:06:29.653Z,68.29
2017-03-23T03:07:39.907Z,68.95
2017-03-23T03:08:50.162Z,69.9
2017-03-23T03:10:00.413Z,68.95
2017-03-23T03:11:10.663Z,69.14
2017-03-23T03:12:20.593Z,69.14
2017-03-23T03:13:30.530Z,68.57
2017-03-23T03:14:40.616Z,68.95
2017-03-23T03:15:50.866Z,68.95
2017-03-23T03:17:01.113Z,68.29
2017-03-23T03:18:11.047Z,68.1
2017-03-23T03:19:20.982Z,67.54
2017-03-23T03:20:31.235Z,67.25
2017-03-23T03:21:40.858Z,67.07
2017-03-23T03:22:50.799Z,67.63
2017-03-23T03:24:00.730Z,68.1
2017-03-23T03:25:10.665Z,68.95
2017-03-23T03:26:20.917Z,69.43
2017-03-23T03:27:31.178Z,69.52
2017-03-23T03:28:41.428Z,69.81
2017-03-23T03:29:51.675Z,69.9
2017-03-23T03:31:01.615Z,68.39
2017-03-23T03:32:11.551Z,67.35
2017-03-23T03:33:21.795Z,66.88
2017-03-23T03:34:31.732Z,66.88
2017-03-23T03:35:41.986Z,66.22
2017-03-23T03:36:52.235Z,66.41
2017-03-23T03:38:02.169Z,66.12
2017-03-23T03:39:11.790Z,66.03
2017-03-23T03:40:21.718Z,65.08
2017-03-23T03:41:31.970Z,64.89
2017-03-23T03:42:41.949Z,65.46
2017-03-23T03:43:51.576Z,65.93
2017-03-23T03:45:01.190Z,65.74
2017-03-23T03:46:10.809Z,65.55
2017-03-23T03:47:20.752Z,66.03
2017-03-23T03:48:30.691Z,66.69
2017-03-23T03:49:40.938Z,65.84
2017-03-23T03:50:50.872Z,66.5
2017-03-23T03:52:00.814Z,66.41
2017-03-23T03:53:11.062Z,65.93
2017-03-23T03:54:21.346Z,65.93
2017-03-23T03:55:31.277Z,65.27
2017-03-23T03:56:41.530Z,65.17
2017-03-23T03:57:51.164Z,65.08
2017-03-23T03:59:01.418Z,64.89
2017-03-23T04:00:11.358Z,66.41
2017-03-23T04:01:21.654Z,67.35
2017-03-23T04:02:31.596Z,66.78
2017-03-23T04:03:41.526Z,66.03
2017-03-23T04:04:51.147Z,66.41
2017-03-23T04:06:01.083Z,67.35
2017-03-23T04:07:11.330Z,66.59
2017-03-23T04:08:21.577Z,67.72
2017-03-23T04:09:31.825Z,67.91
2017-03-23T04:10:42.080Z,67.72
2017-03-23T04:11:52.328Z,68.1
2017-03-23T04:13:02.264Z,68.86
2017-03-23T04:14:12.511Z,69.24
2017-03-23T04:15:22.449Z,69.05
2017-03-23T04:16:32.703Z,69.05
2017-03-23T04:17:42.634Z,69.33
2017-03-23T04:18:52.878Z,70.09
2017-03-23T04:20:02.816Z,69.86
2017-03-23T04:21:12.748Z,70.24
2017-03-23T04:22:22.989Z,69.96
2017-03-23T04:23:32.929Z,69.33
2017-03-23T04:24:43.182Z,69.3
2017-03-23T04:25:52.489Z,69.33
2017-03-23T04:27:02.426Z,69.3
2017-03-23T04:28:12.360Z,69.3
2017-03-23T04:29:22.607Z,69.3
2017-03-23T04:30:32.543Z,69.3
2017-03-23T04:31:42.509Z,69.11
2017-03-23T04:32:52.447Z,69.01
2017-03-23T04:34:02.417Z,69.33
2017-03-23T04:35:12.667Z,69.3
2017-03-23T04:36:22.913Z,69.62
2017-03-23T04:37:33.162Z,70.15
2017-03-23T04:38:42.778Z,70.72
2017-03-23T04:39:52.714Z,70.43
2017-03-23T04:41:02.647Z,71
2017-03-23T04:42:12.579Z,70.72
2017-03-23T04:43:22.823Z,70.37
2017-03-23T04:44:32.761Z,69.86
2017-03-23T04:45:43.015Z,69.67
2017-03-23T04:46:52.948Z,70.56
2017-03-23T04:48:03.201Z,70.72
2017-03-23T04:49:12.821Z,71.28
2017-03-23T04:50:22.444Z,70.15
2017-03-23T04:51:32.689Z,70.34
2017-03-23T04:52:42.628Z,70.34
2017-03-23T04:53:52.556Z,70.09
2017-03-23T04:55:02.175Z,69.24
2017-03-23T04:56:12.111Z,69.14
2017-03-23T04:57:22.366Z,70.18
2017-03-23T04:58:32.305Z,70.18
2017-03-23T04:59:42.556Z,70.09
2017-03-23T05:00:52.490Z,70.56
2017-03-23T05:02:02.420Z,69.49
2017-03-23T05:03:12.354Z,69.43
2017-03-23T05:04:22.603Z,69.49
2017-03-23T05:05:32.854Z,70.05
2017-03-23T05:06:43.150Z,70.34
2017-03-23T05:07:53.089Z,70.37
2017-03-23T05:09:02.706Z,70.15
2017-03-23T05:10:12.954Z,69.9
2017-03-23T05:11:22.888Z,69.67
2017-03-23T05:12:33.138Z,70.05
2017-03-23T05:13:42.754Z,69.67
2017-03-23T05:14:53.001Z,69.58
2017-03-23T05:16:02.624Z,69.86
2017-03-23T05:17:12.873Z,69.39
2017-03-23T05:18:22.809Z,70.15
2017-03-23T05:19:32.426Z,70.15
2017-03-23T05:20:42.672Z,70.24
2017-03-23T05:21:52.610Z,70.62
2017-03-23T05:23:02.543Z,70.72
2017-03-23T05:24:12.790Z,70.81
2017-03-23T05:25:23.083Z,70.9
2017-03-23T05:26:33.365Z,70.81
2017-03-23T05:27:43.313Z,70.72
2017-03-23T05:28:53.601Z,71
2017-03-23T05:30:03.850Z,70.53
2017-03-23T05:31:14.101Z,71.66
2017-03-23T05:32:24.388Z,72.51
2017-03-23T05:33:34.331Z,73.26
2017-03-23T05:34:44.595Z,74.02
2017-03-23T05:35:54.842Z,73.64
2017-03-23T05:37:05.091Z,72.98
2017-03-23T05:38:15.340Z,72.36
2017-03-23T05:39:25.585Z,72.03
2017-03-23T05:40:35.522Z,71.12
2017-03-23T05:41:45.779Z,70.47
2017-03-23T05:42:55.724Z,70.75
2017-03-23T05:44:05.673Z,71.5
2017-03-23T05:45:15.918Z,71.31
2017-03-23T05:46:26.169Z,70.65
2017-03-23T05:47:36.416Z,70.47
2017-03-23T05:48:46.348Z,71.12
2017-03-23T05:49:55.658Z,70.75
2017-03-23T05:51:05.596Z,70.56
2017-03-23T05:52:15.839Z,70.75
2017-03-23T05:53:26.087Z,70.18
2017-03-23T05:54:36.337Z,71.12
2017-03-23T05:55:46.275Z,71.41
2017-03-23T05:56:56.526Z,70.37
2017-03-23T05:58:06.775Z,70.37
2017-03-23T05:59:16.429Z,69.81
2017-03-23T06:00:26.382Z,69.33
2017-03-23T06:01:36.676Z,69.24
2017-03-23T06:02:46.613Z,69.14
2017-03-23T06:03:56.861Z,69.33
2017-03-23T06:05:07.108Z,68.48
2017-03-23T06:06:17.041Z,68.39
2017-03-23T06:07:27.289Z,68.2
2017-03-23T06:08:37.226Z,68.95
2017-03-23T06:09:47.485Z,68.2
2017-03-23T06:10:57.421Z,68.1
2017-03-23T06:12:07.668Z,66.88
2017-03-23T06:13:17.607Z,66.59
2017-03-23T06:14:27.870Z,66.12
2017-03-23T06:15:37.813Z,65.49
2017-03-23T06:16:47.434Z,65.87
2017-03-23T06:17:57.413Z,65.59
2017-03-23T06:19:07.666Z,65.11
2017-03-23T06:20:17.911Z,65.3
2017-03-23T06:21:28.155Z,65.49
2017-03-23T06:22:38.397Z,65.59
2017-03-23T06:23:48.639Z,65.3
2017-03-23T06:24:58.885Z,64.92
2017-03-23T06:26:09.133Z,64.07
2017-03-23T06:27:19.380Z,64.64
2017-03-23T06:28:29.627Z,65.11
2017-03-23T06:29:39.882Z,64.92
2017-03-23T06:30:49.825Z,64.54
2017-03-23T06:32:00.076Z,64.36
2017-03-23T06:33:09.697Z,63.23
2017-03-23T06:34:19.636Z,62.47
2017-03-23T06:35:29.570Z,61.15
2017-03-23T06:36:39.822Z,60.67
2017-03-23T06:37:49.165Z,60.3
2017-03-23T06:38:59.416Z,60.58
2017-03-23T06:40:09.666Z,59.73
2017-03-23T06:41:19.919Z,60.11
2017-03-23T06:42:29.860Z,58.59
2017-03-23T06:43:40.102Z,59.54
2017-03-23T06:44:49.720Z,59.16
2017-03-23T06:45:59.667Z,58.69
2017-03-23T06:47:09.917Z,58.97
2017-03-23T06:48:19.851Z,58.22
2017-03-23T06:49:30.106Z,58.5
2017-03-23T06:50:40.041Z,58.03
2017-03-23T06:51:49.661Z,58.12
2017-03-23T06:52:59.909Z,58.44
2017-03-23T06:54:09.848Z,58.72
2017-03-23T06:55:19.794Z,57.96
2017-03-23T06:56:29.735Z,57.77
2017-03-23T06:57:39.989Z,58.15
2017-03-23T06:58:50.261Z,57.49
2017-03-23T07:00:00.211Z,57.77
2017-03-23T07:01:09.521Z,57.2
2017-03-23T07:02:19.457Z,57.77
2017-03-23T07:03:29.712Z,58.06
2017-03-23T07:04:39.651Z,58.72
2017-03-23T07:05:49.274Z,58.81
2017-03-23T07:06:59.218Z,57.68
2017-03-23T07:08:09.187Z,58.25
2017-03-23T07:09:19.443Z,57.01
2017-03-23T07:10:29.106Z,56.16
2017-03-23T07:11:39.042Z,56.16
2017-03-23T07:12:48.973Z,56.54
2017-03-23T07:13:59.227Z,56.82
2017-03-23T07:15:09.489Z,56.16
2017-03-23T07:16:19.755Z,56.16
2017-03-23T07:17:30.001Z,56.63
2017-03-23T07:18:40.251Z,57.01
2017-03-23T07:19:50.190Z,58.15
2017-03-23T07:20:59.813Z,57.77
2017-03-23T07:22:10.071Z,57.39
2017-03-23T07:23:20.321Z,57.2
2017-03-23T07:24:30.261Z,57.77
2017-03-23T07:25:39.884Z,57.77
2017-03-23T07:26:49.823Z,57.49
2017-03-23T07:27:59.759Z,57.77
2017-03-23T07:29:09.696Z,57.96
2017-03-23T07:30:19.951Z,58.06
2017-03-23T07:31:29.897Z,57.87
2017-03-23T07:32:39.841Z,56.73
2017-03-23T07:33:49.784Z,55.98
2017-03-23T07:34:59.729Z,55.6
2017-03-23T07:36:09.982Z,55.41
2017-03-23T07:37:19.620Z,55.41
2017-03-23T07:38:29.881Z,54.74
2017-03-23T07:39:40.131Z,55.03
2017-03-23T07:40:50.077Z,55.12
2017-03-23T07:41:59.708Z,55.88
2017-03-23T07:43:09.959Z,55.41
2017-03-23T07:44:19.909Z,55.88
2017-03-23T07:45:30.157Z,55.98
2017-03-23T07:46:40.409Z,55.12
2017-03-23T07:47:50.349Z,55.91
2017-03-23T07:49:00.288Z,56.67
2017-03-23T07:50:10.538Z,56.85
2017-03-23T07:51:20.787Z,56.01
2017-03-23T07:52:30.728Z,56.01
2017-03-23T07:53:40.988Z,55.72
2017-03-23T07:54:50.934Z,56.29
2017-03-23T07:56:01.190Z,55.63
2017-03-23T07:57:11.125Z,55.34
2017-03-23T07:58:21.061Z,54.49
2017-03-23T07:59:31.313Z,54.3
2017-03-23T08:00:41.253Z,55.63
2017-03-23T08:01:51.503Z,55.82
2017-03-23T08:03:01.446Z,55.63
2017-03-23T08:04:11.073Z,55.63
2017-03-23T08:05:21.329Z,55.06
2017-03-23T08:06:31.586Z,54.58
2017-03-23T08:07:41.839Z,53.55
2017-03-23T08:08:52.088Z,53.92
2017-03-23T08:10:02.341Z,54.11
2017-03-23T08:11:12.283Z,53.45
2017-03-23T08:12:22.224Z,53.92
2017-03-23T08:13:32.162Z,52.79
2017-03-23T08:14:41.787Z,52.12
2017-03-23T08:15:52.038Z,52.98
2017-03-23T08:17:02.295Z,54.3
2017-03-23T08:18:12.233Z,53.74
2017-03-23T08:19:22.176Z,53.74
2017-03-23T08:20:32.425Z,54.21
2017-03-23T08:21:42.688Z,53.55
2017-03-23T08:22:52.944Z,53.64
2017-03-23T08:24:03.192Z,53.07
2017-03-23T08:25:13.448Z,53.17
2017-03-23T08:26:23.386Z,53.07
2017-03-23T08:27:32.697Z,53.92
2017-03-23T08:28:42.953Z,52.88
2017-03-23T08:29:52.895Z,52.88
2017-03-23T08:31:03.144Z,53.55
2017-03-23T08:32:13.079Z,53.83
2017-03-23T08:33:23.335Z,52.41
2017-03-23T08:34:33.591Z,52.79
2017-03-23T08:35:43.841Z,52.98
2017-03-23T08:36:53.783Z,53.26
2017-03-23T08:38:03.721Z,52.81
2017-03-23T08:39:13.971Z,53.09
2017-03-23T08:40:24.267Z,53.47
2017-03-23T08:41:34.204Z,54.04
2017-03-23T08:42:44.459Z,51.77
2017-03-23T08:43:54.708Z,51.39
2017-03-23T08:45:04.656Z,51.77
2017-03-23T08:46:14.601Z,51.96
2017-03-23T08:47:24.541Z,52.25
2017-03-23T08:48:34.172Z,52.06
2017-03-23T08:49:44.420Z,51.87
2017-03-23T08:50:54.674Z,52.34
2017-03-23T08:52:04.925Z,51.58
2017-03-23T08:53:15.233Z,51.11
2017-03-23T08:54:25.487Z,50.73
2017-03-23T08:55:35.750Z,51.58
2017-03-23T08:56:45.693Z,50.54
2017-03-23T08:57:55.946Z,50.73
2017-03-23T08:59:05.878Z,49.6
2017-03-23T09:00:15.824Z,49.79
2017-03-23T09:01:26.080Z,50.16
2017-03-23T09:02:36.342Z,50.63
2017-03-23T09:03:46.593Z,50.73
2017-03-23T09:04:56.856Z,50.07
2017-03-23T09:06:07.111Z,50.73
2017-03-23T09:07:17.372Z,51.77
2017-03-23T09:08:27.306Z,51.2
2017-03-23T09:09:37.244Z,51.87
2017-03-23T09:10:47.503Z,50.07
2017-03-23T09:11:57.444Z,48.39
2017-03-23T09:13:07.708Z,47.99
2017-03-23T09:14:17.960Z,48.08
2017-03-23T09:15:28.214Z,49.03
2017-03-23T09:16:38.481Z,49.71
2017-03-23T09:17:48.732Z,48.93
2017-03-23T09:18:58.672Z,47.7
2017-03-23T09:20:08.298Z,47.99
2017-03-23T09:21:18.238Z,48.36
2017-03-23T09:22:28.491Z,48.93
2017-03-23T09:23:38.750Z,49.22
2017-03-23T09:24:49.008Z,48.55
2017-03-23T09:25:59.265Z,49.24
2017-03-23T09:27:09.518Z,49.12
2017-03-23T09:28:19.786Z,48.58
2017-03-23T09:29:29.730Z,48.18
2017-03-23T09:30:39.995Z,49.98
2017-03-23T09:31:49.941Z,50.54
2017-03-23T09:33:00.192Z,50.66
2017-03-23T09:34:10.443Z,49.41
2017-03-23T09:35:20.386Z,50.09
2017-03-23T09:36:30.045Z,49.71
2017-03-23T09:37:40.297Z,49.33
2017-03-23T09:38:50.230Z,50.19
2017-03-23T09:40:00.491Z,49.43
2017-03-23T09:41:10.113Z,49.24
2017-03-23T09:42:19.738Z,49.81
2017-03-23T09:43:29.679Z,49.71
2017-03-23T09:44:39.928Z,49.31
2017-03-23T09:45:49.868Z,49.33
2017-03-23T09:47:00.118Z,50.85
2017-03-23T09:48:10.376Z,49.5
2017-03-23T09:49:20.666Z,49.98
2017-03-23T09:50:30.606Z,49.69
2017-03-23T09:51:40.870Z,49.6
2017-03-23T09:52:50.497Z,49.03
2017-03-23T09:54:00.446Z,48.93
2017-03-23T09:55:10.076Z,49.31
2017-03-23T09:56:19.705Z,50.07
2017-03-23T09:57:29.650Z,49.88
2017-03-23T09:58:39.591Z,48.74
2017-03-23T09:59:49.841Z,48.65
2017-03-23T10:01:00.090Z,48.93
2017-03-23T10:02:10.346Z,49.81
2017-03-23T10:03:20.607Z,50.76
2017-03-23T10:04:30.241Z,48.96
2017-03-23T10:05:40.497Z,48.77
2017-03-23T10:06:50.750Z,49.62
2017-03-23T10:08:01.009Z,49.05
2017-03-23T10:09:10.948Z,49.24
2017-03-23T10:10:21.200Z,49.71
2017-03-23T10:11:31.140Z,49.33
2017-03-23T10:12:41.086Z,49.9
2017-03-23T10:13:51.026Z,50.09
2017-03-23T10:15:01.274Z,49.43
2017-03-23T10:16:11.564Z,49.81
2017-03-23T10:17:21.822Z,50.76
2017-03-23T10:18:31.450Z,49.81
2017-03-23T10:19:41.707Z,50.19
2017-03-23T10:20:51.961Z,49.62
2017-03-23T10:22:01.904Z,49.62
2017-03-23T10:23:12.163Z,48.77
2017-03-23T10:24:22.422Z,50
2017-03-23T10:25:32.721Z,49.9
2017-03-23T10:26:42.971Z,50.09
2017-03-23T10:27:53.232Z,49.9
2017-03-23T10:29:03.490Z,50.28
2017-03-23T10:30:13.747Z,49.71
2017-03-23T10:31:23.687Z,49.33
2017-03-23T10:32:33.631Z,49.71
2017-03-23T10:33:43.571Z,50.57
2017-03-23T10:34:53.830Z,50.57
2017-03-23T10:36:04.085Z,49.62
2017-03-23T10:37:14.338Z,50.66
2017-03-23T10:38:24.280Z,50.85
2017-03-23T10:39:34.529Z,51.51
2017-03-23T10:40:44.159Z,52.46
2017-03-23T10:41:53.785Z,51.99
2017-03-23T10:43:04.043Z,50.76
2017-03-23T10:44:13.982Z,50.57
2017-03-23T10:45:24.233Z,50
2017-03-23T10:46:34.488Z,49.52
2017-03-23T10:47:44.430Z,50.19
2017-03-23T10:48:54.694Z,50.57
2017-03-23T10:50:04.636Z,51.51
2017-03-23T10:51:14.573Z,51.8
2017-03-23T10:52:24.824Z,52.27
2017-03-23T10:53:34.759Z,53.69
2017-03-23T10:54:44.705Z,51.89
2017-03-23T10:55:54.643Z,51.23
2017-03-23T10:57:04.906Z,50.57
2017-03-23T10:58:15.159Z,50.66
2017-03-23T10:59:25.437Z,50.59
2017-03-23T11:00:35.697Z,50.02
2017-03-23T11:01:45.949Z,49.62
2017-03-23T11:02:56.197Z,50.19
2017-03-23T11:04:06.450Z,49.62
2017-03-23T11:05:16.710Z,49.65
2017-03-23T11:06:26.961Z,51.26
2017-03-23T11:07:37.220Z,51.26
2017-03-23T11:08:47.472Z,50.31
2017-03-23T11:09:57.405Z,52.01
2017-03-23T11:11:07.346Z,51.45
2017-03-23T11:12:17.598Z,50.88
2017-03-23T11:13:29.887Z,49.55
2017-03-23T11:14:40.142Z,51.47
2017-03-23T11:15:50.395Z,50.71
2017-03-23T11:17:00.683Z,49.13
2017-03-23T11:18:10.941Z,48.86
2017-03-23T11:19:21.197Z,48.01
2017-03-23T11:20:31.141Z,46.7
2017-03-23T11:21:41.082Z,44.83
2017-03-23T11:22:51.346Z,42.83
2017-03-23T11:24:01.606Z,43.14
2017-03-23T11:25:11.865Z,42.76
2017-03-23T11:26:21.810Z,40.03
2017-03-23T11:27:32.069Z,41.55
2017-03-23T11:28:42.013Z,42.33
2017-03-23T11:29:52.273Z,41.85
2017-03-23T11:31:02.221Z,41.85
2017-03-23T11:32:12.483Z,40.45
2017-03-23T11:33:22.751Z,40.45
2017-03-23T11:34:33.016Z,39.21
2017-03-23T11:35:43.279Z,38.75
2017-03-23T11:36:53.613Z,38.66
2017-03-23T11:38:03.882Z,38.47
2017-03-23T11:39:14.144Z,38.58
2017-03-23T11:40:24.410Z,37.54
2017-03-23T11:41:34.369Z,35.72
2017-03-23T11:42:44.326Z,37.44
2017-03-23T11:43:54.277Z,35.27
2017-03-23T11:45:04.547Z,34.31
2017-03-23T11:46:14.495Z,35.17
2017-03-23T11:47:24.132Z,36.05
2017-03-23T11:48:34.091Z,36.05
2017-03-23T11:49:44.042Z,36.25
2017-03-23T11:50:54.311Z,36.56
2017-03-23T11:52:04.589Z,37.63
2017-03-23T11:53:14.860Z,37.36
2017-03-23T11:54:24.497Z,36.9
2017-03-23T11:55:34.765Z,36.06
2017-03-23T11:56:44.723Z,35.79
2017-03-23T11:57:54.999Z,35.88
2017-03-23T11:59:05.271Z,33.99
2017-03-23T12:00:15.224Z,33.81
2017-03-23T12:01:25.499Z,33.72
2017-03-23T12:02:35.458Z,32.97
2017-03-23T12:03:45.419Z,32.79
2017-03-23T12:04:55.691Z,31.07
2017-03-23T12:06:05.647Z,30.51
2017-03-23T12:07:15.602Z,26.76
2017-03-23T12:08:25.556Z,29.44
2017-03-23T12:09:35.524Z,30.3
2017-03-23T12:10:45.795Z,30.62
2017-03-23T12:11:56.065Z,31.38
2017-03-23T12:13:06.336Z,30.73
2017-03-23T12:14:16.608Z,30.46
2017-03-23T12:15:25.934Z,30.26
2017-03-23T12:16:36.218Z,29.41
2017-03-23T12:17:46.486Z,28.74
2017-03-23T12:18:56.439Z,27.6
2017-03-23T12:20:06.712Z,28.66
2017-03-23T12:21:16.358Z,28.77
2017-03-23T12:22:26.018Z,28.67
2017-03-23T12:23:35.986Z,28.59
2017-03-23T12:24:46.264Z,26.76
2017-03-23T12:25:56.543Z,26
2017-03-23T12:27:06.818Z,26
2017-03-23T12:28:16.824Z,24.95
2017-03-23T12:29:26.783Z,20.6
2017-03-23T12:30:36.749Z,23.18
2017-03-23T12:31:47.027Z,20.86
2017-03-23T12:32:56.992Z,21.41
2017-03-23T12:34:07.267Z,22.91
2017-03-23T12:35:17.227Z,24.84
2017-03-23T12:36:27.498Z,26.18
2017-03-23T12:37:37.464Z,24.74
2017-03-23T12:38:47.433Z,25.13
2017-03-23T12:39:57.705Z,23.31
2017-03-23T12:41:07.979Z,23.11
2017-03-23T12:42:17.940Z,23.96
2017-03-23T12:43:28.219Z,25.98
2017-03-23T12:44:38.491Z,23.98
2017-03-23T12:45:48.452Z,22.82
2017-03-23T12:46:58.733Z,23.75
2017-03-23T12:48:09.002Z,24.05
2017-03-23T12:49:19.277Z,22.88
2017-03-23T12:50:28.918Z,22.77
2017-03-23T12:51:39.194Z,22.01
2017-03-23T12:52:49.154Z,21.42
2017-03-23T12:53:59.427Z,20.47
2017-03-23T12:55:09.710Z,21.23
2017-03-23T12:56:19.669Z,23.04
2017-03-23T12:57:29.945Z,26.73
2017-03-23T12:58:39.947Z,26.44
2017-03-23T12:59:49.594Z,26.25
2017-03-23T13:00:59.552Z,26.15
2017-03-23T13:02:09.514Z,26.45
2017-03-23T13:03:19.165Z,27.52
2017-03-23T13:04:29.446Z,25.82
2017-03-23T13:05:39.418Z,24.98
2017-03-23T13:06:49.734Z,24.59
2017-03-23T13:07:59.699Z,25.66
2017-03-23T13:09:09.974Z,25.67
2017-03-23T13:10:19.932Z,26.35
2017-03-23T13:11:30.205Z,25.89
2017-03-23T13:12:40.474Z,25.23
2017-03-23T13:13:50.745Z,25.62
2017-03-23T13:15:00.391Z,24.98
2017-03-23T13:16:10.674Z,25.85
2017-03-23T13:17:20.634Z,23.08
2017-03-23T13:18:30.280Z,20.48
2017-03-23T13:19:40.555Z,22.38
2017-03-23T13:20:50.514Z,23.54
2017-03-23T13:22:00.785Z,21.05
2017-03-23T13:23:10.750Z,20.75
2017-03-23T13:24:21.029Z,21.31
2017-03-23T13:25:30.986Z,20.54
2017-03-23T13:26:40.634Z,19.67
2017-03-23T13:27:50.909Z,22.35
2017-03-23T13:29:01.187Z,23.98
2017-03-23T13:30:11.179Z,24.75
2017-03-23T13:31:21.454Z,25.04
2017-03-23T13:32:31.422Z,25.23
2017-03-23T13:33:41.066Z,25.13
2017-03-23T13:34:51.030Z,25.31
2017-03-23T13:36:01.333Z,25.41
2017-03-23T13:37:11.607Z,25.3
2017-03-23T13:38:21.881Z,25.4
2017-03-23T13:39:31.837Z,25.78
2017-03-23T13:40:41.795Z,25.2
2017-03-23T13:41:52.068Z,25.86
2017-03-23T13:43:02.337Z,26.34
2017-03-23T13:44:12.310Z,26.34
2017-03-23T13:45:22.587Z,26.42
2017-03-23T13:46:32.863Z,27
2017-03-23T13:47:43.145Z,26.62
2017-03-23T13:48:52.781Z,26.41
2017-03-23T13:50:03.048Z,26.31
2017-03-23T13:51:13.328Z,26.5
2017-03-23T13:52:23.601Z,27.47
2017-03-23T13:53:33.878Z,27.94
2017-03-23T13:54:43.829Z,28.13
2017-03-23T13:55:54.096Z,27.56
2017-03-23T13:57:04.364Z,27.93
2017-03-23T13:58:14.322Z,27.83
2017-03-23T13:59:24.278Z,27.64
2017-03-23T14:00:34.245Z,28.02
2017-03-23T14:01:44.511Z,25.92
2017-03-23T14:02:54.783Z,25.71
2017-03-23T14:04:04.737Z,28
2017-03-23T14:05:14.687Z,26.85
2017-03-23T14:06:24.326Z,27.5
2017-03-23T14:07:34.281Z,28.27
2017-03-23T14:08:44.548Z,26.35
2017-03-23T14:09:54.816Z,26.34
2017-03-23T14:11:05.085Z,28.14
2017-03-23T14:12:15.045Z,28.7
2017-03-23T14:13:24.999Z,27.55
2017-03-23T14:14:35.268Z,29.34
2017-03-23T14:15:45.538Z,30.2
2017-03-23T14:16:55.496Z,29.34
2017-03-23T14:18:05.153Z,29.83
2017-03-23T14:19:15.416Z,29.16
2017-03-23T14:20:24.427Z,31.05
2017-03-23T14:21:34.381Z,31.24
2017-03-23T14:22:44.024Z,31.34
2017-03-23T14:23:54.295Z,31.82
2017-03-23T14:25:04.572Z,29.44
2017-03-23T14:26:14.842Z,29.63
2017-03-23T14:27:25.108Z,30.02
2017-03-23T14:28:35.066Z,30.69
2017-03-23T14:29:45.022Z,29.27
2017-03-23T14:30:54.980Z,29.75
2017-03-23T14:32:04.934Z,28.05
2017-03-23T14:33:15.195Z,26.9
2017-03-23T14:34:24.522Z,26.33
2017-03-23T14:35:34.481Z,25.19
2017-03-23T14:36:44.439Z,25.76
2017-03-23T14:37:54.703Z,26.33
2017-03-23T14:39:04.980Z,26.32
2017-03-23T14:40:14.935Z,24.63
2017-03-23T14:41:24.574Z,25.39
2017-03-23T14:42:34.837Z,24.82
2017-03-23T14:43:44.476Z,23.29
2017-03-23T14:44:54.746Z,24.35
2017-03-23T14:46:05.023Z,26.26
2017-03-23T14:47:15.293Z,25.59
2017-03-23T14:48:24.933Z,26.55
2017-03-23T14:49:34.889Z,26.07
2017-03-23T14:50:45.160Z,25.21
2017-03-23T14:51:55.121Z,26.26
2017-03-23T14:53:04.777Z,24.26
2017-03-23T14:54:15.050Z,21.97
2017-03-23T14:55:24.692Z,21.75
2017-03-23T14:56:34.963Z,22.89
2017-03-23T14:57:44.920Z,21.55
2017-03-23T14:58:55.194Z,21.73
2017-03-23T15:00:05.471Z,22.3
2017-03-23T15:01:15.739Z,22.68
2017-03-23T15:02:25.385Z,24.58
2017-03-23T15:03:35.344Z,24.78
2017-03-23T15:04:45.654Z,24.98
2017-03-23T15:05:55.622Z,24.9
2017-03-23T15:07:05.283Z,25.77